Time;durP1;ratioP1;P1;durP2;ratioP2;P2;SDS_P1;SDS_P2;PMS_P1;PMS_P2;Temp;Humidity;BMP_temperature;BMP_pressure;BME280_temperature;BME280_humidity;BME280_pressure;Samples;Min_cycle;Max_cycle;Signal;HPM_P1;HPM_P2
2021/12/21 07:20:16;;;;;;;12.25;4.00;;;;;;;1.17;100.00;102408.31;5120602;28;20091;-79
2021/12/21 07:22:42;;;;;;;14.85;4.35;;;;;;;1.03;100.00;102413.81;5100930;28;20031;-76
2021/12/21 07:25:08;;;;;;;14.35;4.30;;;;;;;1.14;100.00;102420.53;5069487;28;20430;-75
2021/12/21 07:27:34;;;;;;;13.38;3.95;;;;;;;1.19;100.00;102437.75;5068483;28;20054;-74
2021/12/21 07:30:13;;;;;;;15.20;4.30;;;;;;;1.11;100.00;102416.22;5105578;28;20024;-79
2021/12/21 07:32:45;;;;;;;13.70;4.38;;;;;;;1.17;100.00;102423.91;5074416;28;20343;-79
2021/12/21 07:35:44;;;;;;;;;;;;;;;;;;;;;
2021/12/21 07:38:10;;;;;;;15.52;4.43;;;;;;;1.02;100.00;102440.72;5079200;28;20504;-78
2021/12/21 07:40:39;;;;;;;16.15;4.38;;;;;;;1.02;100.00;102443.31;5095590;28;20142;-82
2021/12/21 07:43:09;;;;;;;10.20;3.92;;;;;;;0.96;100.00;102424.38;5076058;28;20031;-83
2021/12/21 07:45:42;;;;;;;14.93;4.07;;;;;;;1.03;100.00;102459.78;5085716;28;20020;-77
2021/12/21 07:48:11;;;;;;;18.45;4.47;;;;;;;0.54;100.00;102406.13;5081026;28;20116;-81
2021/12/21 07:51:00;;;;;;;20.30;4.38;;;;;;;0.86;100.00;102451.44;5080151;28;20040;-79
2021/12/21 07:53:32;;;;;;;13.25;4.68;;;;;;;0.92;100.00;102448.75;5115371;28;20028;-80
2021/12/21 07:56:02;;;;;;;14.52;4.78;;;;;;;0.81;100.00;102439.38;5084312;28;20059;-81
2021/12/21 07:58:56;;;;;;;13.18;4.75;;;;;;;0.66;100.00;102410.22;5087789;28;20020;-83
2021/12/21 08:01:32;;;;;;;16.63;4.53;;;;;;;0.70;100.00;102428.34;5003575;28;20040;-81
2021/12/21 08:04:17;;;;;;;15.95;4.50;;;;;;;0.92;100.00;102462.59;5006301;28;20524;-83
2021/12/21 08:07:44;;;;;;;14.98;5.10;;;;;;;0.88;100.00;102462.69;5021030;28;20068;-78
2021/12/21 08:10:41;;;;;;;15.18;4.50;;;;;;;0.81;100.00;102451.53;5001301;28;20085;-79
2021/12/21 08:13:13;;;;;;;18.70;5.32;;;;;;;0.72;100.00;102451.72;5006735;28;20042;-81
2021/12/21 08:16:08;;;;;;;14.73;4.85;;;;;;;0.81;100.00;102444.59;4989730;28;20058;-84
2021/12/21 08:19:18;;;;;;;16.55;5.03;;;;;;;0.83;100.00;102453.22;4974167;28;20070;-83
2021/12/21 08:25:18;;;;;;;15.75;5.32;;;;;;;0.75;100.00;102430.84;850886;26;20331;-82
2021/12/21 08:31:12;;;;;;;20.00;5.43;;;;;;;0.99;100.00;102456.38;4950970;29;20040;-80
2021/12/21 08:33:50;;;;;;;18.63;5.95;;;;;;;0.97;100.00;102442.53;4937273;29;20052;-79
2021/12/21 08:39:15;;;;;;;15.20;5.78;;;;;;;0.94;100.00;102439.16;5547353;23;20068;-82
2021/12/21 08:42:02;;;;;;;17.05;5.38;;;;;;;0.90;100.00;102421.91;5053035;23;20054;-79
2021/12/21 08:44:29;;;;;;;19.15;5.82;;;;;;;0.81;100.00;102412.53;5011290;28;20126;-77
2021/12/21 08:46:58;;;;;;;17.88;5.40;;;;;;;0.92;100.00;102420.97;5004560;28;20078;-78
2021/12/21 08:49:25;;;;;;;16.92;5.60;;;;;;;1.04;100.00;102414.66;5013159;28;20054;-78
2021/12/21 08:51:55;;;;;;;19.05;6.00;;;;;;;0.94;100.00;102424.41;4989852;28;20481;-77
2021/12/21 08:54:24;;;;;;;15.52;5.57;;;;;;;0.94;100.00;102442.63;4986133;28;20027;-81
2021/12/21 08:57:12;;;;;;;17.77;5.78;;;;;;;1.09;100.00;102430.16;4959186;28;20058;-78
2021/12/21 08:59:42;;;;;;;21.27;5.65;;;;;;;1.31;100.00;102485.22;4977566;28;20098;-83
2021/12/21 09:02:22;;;;;;;18.20;5.43;;;;;;;1.14;100.00;102437.00;4986504;28;20101;-80
2021/12/21 09:05:07;;;;;;;17.95;6.40;;;;;;;1.35;100.00;102459.09;4933215;29;20063;-79
2021/12/21 09:08:32;;;;;;;15.02;5.60;;;;;;;1.40;100.00;102475.47;4870858;29;20034;-80
2021/12/21 09:11:28;;;;;;;18.17;5.90;;;;;;;1.36;100.00;102457.34;4866323;29;20037;-78
2021/12/21 09:13:57;;;;;;;20.52;5.78;;;;;;;1.16;100.00;102457.75;4865676;29;20040;-79
2021/12/21 09:16:26;;;;;;;15.38;5.47;;;;;;;1.37;100.00;102456.47;4873313;29;20045;-79
2021/12/21 09:19:02;;;;;;;13.90;5.07;;;;;;;1.43;100.00;102422.47;4870862;29;20080;-79
2021/12/21 09:21:28;;;;;;;17.67;5.47;;;;;;;1.67;100.00;102455.75;4851809;29;20041;-79
2021/12/21 09:23:56;;;;;;;52.10;20.45;;;;;;;1.49;100.00;102424.94;4849821;29;20026;-79
2021/12/21 09:26:27;;;;;;;18.35;6.40;;;;;;;1.44;100.00;102473.66;4850317;29;20034;-80
2021/12/21 09:28:56;;;;;;;16.85;5.57;;;;;;;1.43;100.00;102459.81;4864003;29;20034;-77
2021/12/21 09:31:24;;;;;;;23.52;5.72;;;;;;;1.27;100.00;102445.38;4853661;29;20042;-78
2021/12/21 09:33:50;;;;;;;17.80;5.28;;;;;;;1.62;100.00;102459.38;4872602;29;20040;-76
2021/12/21 09:36:16;;;;;;;16.45;5.60;;;;;;;1.67;100.00;102452.31;4900811;29;20129;-78
2021/12/21 09:38:43;;;;;;;17.13;5.63;;;;;;;1.70;100.00;102472.22;4904578;29;20192;-78
2021/12/21 09:41:10;;;;;;;19.13;5.68;;;;;;;1.44;100.00;102453.69;4903464;29;20313;-79
2021/12/21 09:43:40;;;;;;;15.18;4.43;;;;;;;1.55;100.00;102478.66;4905174;29;20059;-76
2021/12/21 09:46:24;;;;;;;14.60;4.45;;;;;;;1.53;100.00;102457.00;4985448;28;20035;-79
2021/12/21 09:48:51;;;;;;;27.00;8.18;;;;;;;1.74;100.00;102448.66;4961560;28;20037;-79
2021/12/21 09:51:20;;;;;;;17.73;7.03;;;;;;;2.04;100.00;102475.75;4994956;28;20030;-77
2021/12/21 09:54:00;;;;;;;21.80;5.38;;;;;;;1.97;100.00;102483.75;4998512;28;20049;-77
2021/12/21 09:56:46;;;;;;;16.17;4.47;;;;;;;1.44;100.00;102435.47;5019912;28;20049;-79
2021/12/21 09:59:32;;;;;;;13.55;4.20;;;;;;;2.08;100.00;102473.91;5464245;23;20133;-74
2021/12/21 10:01:58;;;;;;;11.70;3.70;;;;;;;2.03;100.00;102458.38;5040330;28;20068;-72
2021/12/21 10:04:26;;;;;;;13.45;4.32;;;;;;;1.91;100.00;102450.00;5039598;28;20125;-73
2021/12/21 10:06:54;;;;;;;12.02;3.78;;;;;;;1.60;100.00;102422.09;5039032;28;20025;-72
2021/12/21 10:09:23;;;;;;;12.25;3.67;;;;;;;1.79;100.00;102407.72;5038723;28;20032;-73
2021/12/21 10:11:50;;;;;;;11.90;3.78;;;;;;;1.91;100.00;102397.91;5039195;28;20029;-73
2021/12/21 10:14:23;;;;;;;15.38;3.97;;;;;;;1.74;100.00;102386.16;5020934;28;20026;-73
2021/12/21 10:16:59;;;;;;;11.15;4.32;;;;;;;1.99;100.00;102411.59;5039328;28;20029;-73
2021/12/21 10:19:25;;;;;;;12.75;4.50;;;;;;;2.25;100.00;102445.69;5024750;28;20049;-72
2021/12/21 10:21:51;;;;;;;13.00;4.70;;;;;;;1.86;100.00;102437.09;5046037;28;20025;-73
2021/12/21 10:24:28;;;;;;;12.90;4.40;;;;;;;1.69;100.00;102384.56;5010941;28;20117;-73
2021/12/21 10:27:07;;;;;;;12.65;4.18;;;;;;;1.91;100.00;102422.22;5018053;28;20144;-76
2021/12/21 10:29:53;;;;;;;13.65;4.90;;;;;;;2.25;100.00;102416.16;5019346;28;20034;-72
2021/12/21 10:32:25;;;;;;;16.60;4.65;;;;;;;2.08;100.00;102399.19;5018668;28;20022;-71
2021/12/21 10:35:06;;;;;;;14.50;4.75;;;;;;;1.71;100.00;102374.97;5015407;28;20376;-73
2021/12/21 10:37:34;;;;;;;12.55;4.70;;;;;;;1.82;100.00;102427.66;5017101;28;20030;-72
2021/12/21 10:40:05;;;;;;;16.73;4.80;;;;;;;1.99;100.00;102430.69;5017036;28;20022;-74
2021/12/21 10:42:31;;;;;;;17.92;4.53;;;;;;;2.06;100.00;102387.94;5017326;28;20022;-75
2021/12/21 10:45:07;;;;;;;17.27;4.45;;;;;;;2.29;100.00;102383.88;5021170;28;20104;-77
2021/12/21 10:47:33;;;;;;;17.58;4.82;;;;;;;2.14;100.00;102408.63;5019538;28;20105;-73
2021/12/21 10:50:00;;;;;;;15.48;5.00;;;;;;;2.33;100.00;102427.22;5016437;28;20033;-73
2021/12/21 10:52:25;;;;;;;14.95;5.10;;;;;;;2.49;100.00;102431.13;5016138;28;20385;-75
2021/12/21 10:54:51;;;;;;;12.93;4.70;;;;;;;2.24;100.00;102427.47;5014991;28;20475;-73
2021/12/21 10:57:18;;;;;;;14.65;4.22;;;;;;;2.84;100.00;102431.06;5034228;28;20041;-73
2021/12/21 10:59:46;;;;;;;13.75;4.05;;;;;;;3.00;100.00;102414.06;5008375;28;20054;-75
2021/12/21 11:02:23;;;;;;;13.20;4.68;;;;;;;3.18;100.00;102414.41;5030831;28;20113;-72
2021/12/21 11:04:54;;;;;;;15.85;4.80;;;;;;;3.39;100.00;102389.41;5032702;28;20025;-73
2021/12/21 11:10:11;;;;;;;14.80;4.38;;;;;;;3.95;100.00;102403.25;5034730;28;20037;-75
2021/12/21 11:12:54;;;;;;;12.50;4.25;;;;;;;4.25;100.00;102403.13;5017997;28;20087;-73
2021/12/21 11:15:30;;;;;;;16.52;4.25;;;;;;;4.48;100.00;102410.16;5035962;28;20033;-76
2021/12/21 11:17:59;;;;;;;11.75;3.90;;;;;;;4.74;100.00;102414.44;5034933;28;20076;-74
2021/12/21 11:20:28;;;;;;;12.48;4.30;;;;;;;4.71;100.00;102396.22;5034714;28;20033;-75
2021/12/21 11:22:54;;;;;;;13.60;4.10;;;;;;;4.72;100.00;102404.94;5016928;28;20483;-75
2021/12/21 11:25:22;;;;;;;11.10;4.40;;;;;;;6.76;92.96;102403.63;5018164;28;20108;-74
2021/12/21 11:27:48;;;;;;;11.70;3.67;;;;;;;8.86;66.28;102389.75;5035637;28;20052;-77
2021/12/21 11:30:17;;;;;;;15.02;3.72;;;;;;;8.96;60.75;102327.72;5036781;28;20049;-75
2021/12/21 11:32:48;;;;;;;14.80;3.72;;;;;;;7.46;69.08;102350.41;5036903;28;20091;-75
2021/12/21 11:37:48;;;;;;;12.55;3.53;;;;;;;7.67;66.90;102364.25;5036127;28;20033;-75
2021/12/21 11:40:19;;;;;;;9.75;3.60;;;;;;;6.05;77.79;102333.28;5036614;28;20040;-74
2021/12/21 11:42:51;;;;;;;15.25;3.78;;;;;;;5.76;86.62;102387.78;5022842;28;20037;-75
2021/12/21 11:45:28;;;;;;;13.15;4.40;;;;;;;4.52;96.30;102367.28;5019301;28;20026;-78
2021/12/21 11:48:09;;;;;;;13.23;3.85;;;;;;;4.84;100.00;102375.72;5033836;28;20129;-77
2021/12/21 11:50:39;;;;;;;10.48;3.92;;;;;;;4.06;100.00;102384.56;5025402;28;20026;-79
2021/12/21 11:53:10;;;;;;;13.02;4.00;;;;;;;4.29;100.00;102330.63;5036968;28;20068;-76
2021/12/21 11:55:39;;;;;;;11.13;3.67;;;;;;;4.31;100.00;102350.56;5021714;28;20017;-79
2021/12/21 11:58:29;;;;;;;12.45;3.67;;;;;;;4.68;99.27;102335.28;5035083;28;20026;-76
2021/12/21 12:01:00;;;;;;;14.00;3.63;;;;;;;4.73;98.14;102356.94;5033452;28;20073;-74
2021/12/21 12:03:29;;;;;;;16.67;3.63;;;;;;;5.02;97.41;102361.06;5038257;28;20053;-74
2021/12/21 12:06:04;;;;;;;14.25;3.65;;;;;;;5.43;92.77;102353.34;5020267;28;20030;-81
2021/12/21 12:09:04;;;;;;;12.10;3.58;;;;;;;5.51;87.80;102348.63;5032526;28;20026;-82
2021/12/21 12:11:39;;;;;;;9.23;3.30;;;;;;;4.93;87.78;102298.59;5038758;28;20028;-80
2021/12/21 12:14:11;;;;;;;12.23;3.47;;;;;;;4.49;93.13;102270.59;5051749;28;20030;-74
2021/12/21 12:23:19;;;;;;;11.55;3.00;;;;;;;6.28;78.91;102288.53;5033233;23;20057;-84
2021/12/21 12:31:59;;;;;;;8.18;2.80;;;;;;;7.59;66.98;102328.78;5342067;22;19920;-84
2021/12/21 12:34:53;;;;;;;9.88;2.35;;;;;;;8.13;59.75;102325.13;5057536;28;20086;-85
2021/12/21 12:37:57;;;;;;;;;;;;;;;;;;;;;
2021/12/21 12:41:09;;;;;;;7.70;2.38;;;;;;;12.20;40.78;102291.59;4987369;28;20026;-84
2021/12/21 12:43:50;;;;;;;7.35;2.20;;;;;;;12.50;38.58;102319.53;4948645;29;20063;-83
2021/12/21 12:46:27;;;;;;;8.93;1.98;;;;;;;12.73;38.54;102280.75;4946194;29;20386;-82
2021/12/21 12:48:57;;;;;;;7.45;2.50;;;;;;;12.50;37.87;102308.91;4930009;29;20043;-79
2021/12/21 12:52:19;;;;;;;15.80;6.13;;;;;;;13.20;36.34;102305.59;4911631;29;20070;-84
2021/12/21 12:58:26;;;;;;;10.60;2.80;;;;;;;13.76;35.84;102311.13;4906334;29;20037;-79
2021/12/21 13:01:26;;;;;;;8.40;2.65;;;;;;;13.92;36.05;102299.31;4906800;29;20183;-83
2021/12/21 13:04:01;;;;;;;9.25;2.80;;;;;;;14.47;35.64;102287.03;4879026;29;20037;-82
2021/12/21 13:06:46;;;;;;;8.35;2.42;;;;;;;15.01;34.78;102269.38;4916770;29;20016;-82
2021/12/21 13:09:18;;;;;;;8.65;2.55;;;;;;;15.15;33.06;102301.03;4903876;29;20033;-78
2021/12/21 13:14:36;;;;;;;11.50;2.70;;;;;;;9.81;40.87;102281.47;2639754;22;20131;-82
2021/12/21 13:17:15;;;;;;;11.32;2.92;;;;;;;8.70;47.23;102310.72;5082311;28;20048;-81
2021/12/21 13:19:58;;;;;;;9.85;3.20;;;;;;;7.63;53.76;102282.97;5080140;28;20044;-83
2021/12/21 13:22:52;;;;;;;;;;;;;;;;;;;;;
2021/12/21 13:25:29;;;;;;;8.30;3.25;;;;;;;6.86;66.92;102315.66;5066647;28;20028;-81
2021/12/21 13:27:57;;;;;;;10.10;2.92;;;;;;;6.28;72.70;102293.78;5074499;28;20029;-77
2021/12/21 13:33:01;;;;;;;8.25;3.10;;;;;;;5.90;76.74;102305.06;662523;26;21061;-79
2021/12/21 13:36:38;;;;;;;12.27;3.30;;;;;;;5.77;80.29;102297.75;5058559;28;20072;-80
2021/12/21 13:39:44;;;;;;;14.25;3.70;;;;;;;5.28;87.64;102298.94;4990907;28;20065;-80
2021/12/21 13:43:05;;;;;;;;;;;;;;;;;;;;;
2021/12/21 13:46:16;;;;;;;10.93;2.53;;;;;;;4.87;82.20;102270.03;5439059;22;20329;-82
2021/12/21 13:49:02;;;;;;;;;;;;;;;;;;;;;
2021/12/21 13:51:28;;;;;;;10.80;3.30;;;;;;;5.02;90.99;102291.22;5065663;28;20064;-82
2021/12/21 13:54:03;;;;;;;13.52;2.90;;;;;;;4.61;98.94;102243.13;5068186;22;20055;-82
2021/12/21 13:56:59;;;;;;;56.33;22.35;;;;;;;4.33;100.00;102272.91;5116868;22;20127;-82
2021/12/21 13:59:31;;;;;;;10.50;3.22;;;;;;;4.22;100.00;102266.38;5020934;28;20042;-81
2021/12/21 14:02:06;;;;;;;12.47;2.60;;;;;;;4.65;97.06;102291.78;5022150;28;20053;-81
2021/12/21 14:04:58;;;;;;;8.20;2.10;;;;;;;4.16;92.32;102257.88;5030720;28;20033;-82
2021/12/21 14:07:25;;;;;;;24.35;8.95;;;;;;;4.44;99.38;102282.16;5050847;22;20060;-80
2021/12/21 14:10:13;;;;;;;;;;;;;;;4.46;100.00;102296.88;5055123;23;20086;-80
2021/12/21 14:12:57;;;;;;;12.13;4.18;;;;;;;4.27;100.00;102278.41;5299235;22;20191;-83
2021/12/21 14:16:20;;;;;;;14.95;4.75;;;;;;;3.94;100.00;102263.00;5069172;22;20344;-81
2021/12/21 14:19:09;;;;;;;13.52;4.63;;;;;;;4.06;100.00;102279.16;5043173;23;20053;-81
2021/12/21 14:22:17;;;;;;;14.48;4.38;;;;;;;3.59;100.00;102303.44;5135297;23;20082;-82
2021/12/21 14:27:27;;;;;;;13.90;5.13;;;;;;;3.68;100.00;102255.22;5203441;22;20413;-84
2021/12/21 14:30:11;;;;;;;11.60;4.53;;;;;;;4.01;100.00;102292.41;5097888;23;20045;-85
2021/12/21 14:33:06;;;;;;;14.55;5.40;;;;;;;3.60;100.00;102270.34;5073906;28;20040;-84
2021/12/21 14:35:47;;;;;;;15.68;5.13;;;;;;;3.76;100.00;102303.69;5052035;28;20050;-83
2021/12/21 14:39:10;;;;;;;12.38;5.03;;;;;;;4.07;100.00;102304.41;5050995;28;20025;-83
2021/12/21 14:41:52;;;;;;;14.20;5.35;;;;;;;3.71;100.00;102296.94;5040151;28;20492;-81
2021/12/21 14:44:26;;;;;;;15.13;5.78;;;;;;;3.85;100.00;102315.59;5036173;28;20031;-82
2021/12/21 14:47:01;;;;;;;13.00;4.82;;;;;;;3.63;100.00;102286.72;5034978;28;20048;-85
2021/12/21 14:50:04;;;;;;;15.23;5.35;;;;;;;3.58;100.00;102316.53;5032572;28;20025;-82
2021/12/21 14:53:04;;;;;;;12.85;5.50;;;;;;;3.58;100.00;102275.59;5092052;23;20017;-83
2021/12/21 14:55:57;;;;;;;14.52;5.55;;;;;;;3.42;100.00;102298.75;5045061;28;20045;-79
2021/12/21 14:58:30;;;;;;;14.65;5.90;;;;;;;3.46;100.00;102292.53;5043038;28;20052;-81
2021/12/21 15:01:02;;;;;;;12.82;5.07;;;;;;;3.37;100.00;102299.84;5010983;28;20041;-83
2021/12/21 15:03:39;;;;;;;18.98;6.32;;;;;;;3.59;100.00;102315.63;5003360;28;20248;-77
2021/12/21 15:06:05;;;;;;;16.48;6.18;;;;;;;3.52;100.00;102304.53;5016344;28;20414;-74
2021/12/21 15:08:33;;;;;;;14.68;5.88;;;;;;;3.22;100.00;102275.06;5032124;28;20040;-72
2021/12/21 15:11:00;;;;;;;16.55;6.10;;;;;;;3.46;100.00;102323.03;5018580;28;20057;-73
2021/12/21 15:13:26;;;;;;;15.48;5.88;;;;;;;3.48;100.00;102313.38;5035156;28;20489;-74
2021/12/21 15:15:52;;;;;;;14.30;5.60;;;;;;;3.50;100.00;102322.88;5036343;28;20594;-74
2021/12/21 15:18:18;;;;;;;18.80;5.65;;;;;;;3.42;100.00;102309.22;5034995;28;20468;-74
2021/12/21 15:20:46;;;;;;;13.93;5.70;;;;;;;3.25;100.00;102319.38;5018123;28;20063;-74
2021/12/21 15:23:12;;;;;;;17.30;5.80;;;;;;;3.17;100.00;102323.97;5032232;28;20463;-75
2021/12/21 15:25:38;;;;;;;13.70;5.57;;;;;;;3.06;100.00;102313.84;5032945;28;20091;-72
2021/12/21 15:28:05;;;;;;;14.55;5.47;;;;;;;3.20;100.00;102321.25;5054064;28;20032;-73
2021/12/21 15:30:31;;;;;;;15.32;5.53;;;;;;;2.39;100.00;102314.13;5036781;28;20033;-72
2021/12/21 15:32:57;;;;;;;15.32;5.63;;;;;;;2.67;100.00;102309.78;5055154;28;20032;-72
2021/12/21 15:35:26;;;;;;;13.98;5.38;;;;;;;2.86;100.00;102335.31;5056074;28;20079;-73
2021/12/21 15:37:53;;;;;;;21.23;6.32;;;;;;;2.95;100.00;102319.38;5056644;28;20025;-72
2021/12/21 15:40:21;;;;;;;16.23;5.60;;;;;;;3.00;100.00;102327.97;5059149;28;20470;-73
2021/12/21 15:42:48;;;;;;;17.85;5.93;;;;;;;2.87;100.00;102329.22;5039665;28;20033;-73
2021/12/21 15:45:14;;;;;;;14.73;5.97;;;;;;;2.81;100.00;102306.78;5056032;28;20032;-72
2021/12/21 15:47:40;;;;;;;20.40;6.25;;;;;;;2.80;100.00;102312.06;5039311;28;20057;-73
2021/12/21 15:50:11;;;;;;;17.13;5.82;;;;;;;2.86;100.00;102322.28;5038707;28;20110;-72
2021/12/21 15:52:37;;;;;;;16.23;5.85;;;;;;;2.73;100.00;102311.38;5055918;28;20028;-72
2021/12/21 15:55:08;;;;;;;14.60;6.20;;;;;;;2.66;100.00;102310.72;5067521;28;20128;-72
2021/12/21 15:57:35;;;;;;;18.73;6.57;;;;;;;2.80;100.00;102343.38;5060174;28;20036;-72
2021/12/21 16:00:04;;;;;;;19.58;6.50;;;;;;;2.62;100.00;102334.31;5045821;28;20040;-72
2021/12/21 16:02:30;;;;;;;19.52;6.07;;;;;;;2.50;100.00;102330.31;5066035;28;20096;-72
2021/12/21 16:04:56;;;;;;;23.10;6.88;;;;;;;2.58;100.00;102338.75;5082922;28;20039;-72
2021/12/21 16:07:23;;;;;;;17.52;6.72;;;;;;;2.63;100.00;102326.44;5058034;28;20025;-73
2021/12/21 16:09:49;;;;;;;17.92;7.03;;;;;;;2.66;100.00;102339.41;5059115;28;20501;-73
2021/12/21 16:12:14;;;;;;;22.27;6.88;;;;;;;2.54;100.00;102331.06;5058946;28;20025;-72
2021/12/21 16:14:40;;;;;;;21.63;8.57;;;;;;;2.36;100.00;102330.69;5058746;28;20104;-71
2021/12/21 16:17:07;;;;;;;25.45;9.30;;;;;;;2.51;100.00;102332.84;5076767;28;20020;-72
2021/12/21 16:19:34;;;;;;;19.65;7.60;;;;;;;2.33;100.00;102325.56;5076054;28;20115;-71
2021/12/21 16:22:03;;;;;;;22.30;7.32;;;;;;;2.32;100.00;102336.03;5058618;28;20029;-72
2021/12/21 16:24:29;;;;;;;17.38;7.10;;;;;;;2.38;100.00;102334.09;5059866;28;20112;-74
2021/12/21 16:26:55;;;;;;;15.75;6.03;;;;;;;2.39;100.00;102329.75;5061950;28;20028;-72
2021/12/21 16:29:22;;;;;;;16.23;6.28;;;;;;;2.43;100.00;102327.03;5048701;28;20033;-76
2021/12/21 16:31:49;;;;;;;16.38;6.55;;;;;;;2.34;100.00;102322.06;5065950;28;20032;-73
2021/12/21 16:34:15;;;;;;;21.42;7.63;;;;;;;2.34;100.00;102313.38;5050833;28;20149;-72
2021/12/21 16:36:41;;;;;;;21.10;7.50;;;;;;;2.13;100.00;102292.22;5045722;28;20032;-72
2021/12/21 16:39:08;;;;;;;18.30;6.95;;;;;;;2.13;100.00;102293.97;5044985;28;20424;-73
2021/12/21 16:41:36;;;;;;;18.73;7.68;;;;;;;2.19;100.00;102306.84;5032165;28;20464;-72
2021/12/21 16:44:04;;;;;;;18.58;7.05;;;;;;;2.43;100.00;102329.63;5060601;28;20507;-73
2021/12/21 16:46:31;;;;;;;21.35;6.93;;;;;;;2.16;100.00;102301.69;5044765;28;20048;-75
2021/12/21 16:48:57;;;;;;;19.58;6.20;;;;;;;2.07;100.00;102332.34;5078540;28;20076;-72
2021/12/21 16:51:26;;;;;;;16.73;6.28;;;;;;;2.11;100.00;102333.09;5076532;28;20150;-79
2021/12/21 16:53:55;;;;;;;16.23;6.15;;;;;;;2.23;100.00;102342.38;5045476;28;20073;-77
2021/12/21 16:56:21;;;;;;;19.35;6.70;;;;;;;1.98;100.00;102301.34;5060854;28;20082;-76
2021/12/21 16:58:51;;;;;;;18.25;6.50;;;;;;;2.04;100.00;102345.47;5059588;28;20078;-75
2021/12/21 17:01:20;;;;;;;19.05;6.70;;;;;;;1.97;100.00;102323.06;5048469;28;20026;-76
2021/12/21 17:03:46;;;;;;;16.38;6.32;;;;;;;2.06;100.00;102338.44;5056518;28;20031;-74
2021/12/21 17:06:12;;;;;;;15.23;6.45;;;;;;;2.06;100.00;102342.81;5050337;28;20121;-76
2021/12/21 17:08:45;;;;;;;18.15;7.00;;;;;;;2.03;100.00;102345.50;5039732;28;20033;-75
2021/12/21 17:11:22;;;;;;;19.25;7.43;;;;;;;2.02;100.00;102334.22;5063651;28;20489;-77
2021/12/21 17:13:54;;;;;;;17.52;6.30;;;;;;;1.76;100.00;102308.84;5029250;28;20037;-76
2021/12/21 17:16:21;;;;;;;17.88;6.95;;;;;;;1.71;100.00;102333.31;5038845;28;20085;-75
2021/12/21 17:18:47;;;;;;;15.85;7.18;;;;;;;1.83;100.00;102331.22;5006237;28;20124;-75
2021/12/21 17:21:14;;;;;;;19.70;7.15;;;;;;;1.71;100.00;102310.72;5042203;28;20052;-76
2021/12/21 17:23:42;;;;;;;18.58;7.25;;;;;;;1.94;100.00;102346.59;5039715;28;20024;-74
2021/12/21 17:26:11;;;;;;;25.50;10.35;;;;;;;1.79;100.00;102323.53;5022543;28;20029;-74
2021/12/21 17:28:37;;;;;;;25.98;9.27;;;;;;;1.73;100.00;102339.34;5044215;28;20021;-76
2021/12/21 17:31:05;;;;;;;17.67;7.30;;;;;;;1.86;100.00;102353.72;5059059;28;20028;-76
2021/12/21 17:33:31;;;;;;;19.25;8.15;;;;;;;1.61;100.00;102351.78;5035158;28;20094;-76
2021/12/21 17:36:04;;;;;;;17.27;7.60;;;;;;;1.64;100.00;102327.41;5031354;28;20055;-75
2021/12/21 17:38:32;;;;;;;50.70;18.17;;;;;;;1.85;100.00;102352.03;5031373;28;20479;-75
2021/12/21 17:40:59;;;;;;;23.35;8.68;;;;;;;1.94;100.00;102340.53;5031226;28;20029;-76
2021/12/21 17:43:24;;;;;;;19.75;7.93;;;;;;;1.91;100.00;102354.50;5032202;28;20035;-75
2021/12/21 17:45:50;;;;;;;23.63;7.70;;;;;;;1.74;100.00;102322.81;5015729;28;20104;-73
2021/12/21 17:48:19;;;;;;;20.05;7.72;;;;;;;1.87;100.00;102358.91;5036628;28;20021;-75
2021/12/21 17:50:47;;;;;;;19.05;7.90;;;;;;;1.73;100.00;102321.97;5018777;28;20078;-76
2021/12/21 17:53:14;;;;;;;22.80;9.13;;;;;;;1.90;100.00;102357.13;5034108;28;20036;-75
2021/12/21 17:55:41;;;;;;;18.40;7.97;;;;;;;1.74;100.00;102334.06;5033375;28;20044;-74
2021/12/21 17:58:09;;;;;;;17.38;7.47;;;;;;;1.66;100.00;102320.41;5051124;28;20036;-75
2021/12/21 18:00:37;;;;;;;17.02;7.72;;;;;;;1.66;100.00;102310.84;5035924;28;20040;-75
2021/12/21 18:03:02;;;;;;;19.98;8.07;;;;;;;1.74;100.00;102315.00;5037545;28;20024;-74
2021/12/21 18:05:29;;;;;;;20.45;8.65;;;;;;;1.89;100.00;102353.69;5061548;28;20016;-75
2021/12/21 18:08:18;;;;;;;20.77;8.60;;;;;;;1.75;100.00;102354.03;5054471;28;20028;-75
2021/12/21 18:10:51;;;;;;;19.75;8.55;;;;;;;1.76;100.00;102358.34;5057971;28;20394;-73
2021/12/21 18:13:21;;;;;;;24.98;9.18;;;;;;;1.80;100.00;102340.88;5055039;28;20025;-74
2021/12/21 18:15:46;;;;;;;19.95;8.27;;;;;;;1.59;100.00;102316.22;5051870;28;20028;-79
2021/12/21 18:18:12;;;;;;;21.58;8.70;;;;;;;1.88;100.00;102359.75;5071022;28;20484;-74
2021/12/21 18:20:38;;;;;;;21.92;8.82;;;;;;;1.79;100.00;102357.41;5070334;28;20027;-72
2021/12/21 18:23:08;;;;;;;17.00;8.27;;;;;;;1.84;100.00;102337.28;5060116;28;20024;-73
2021/12/21 18:25:35;;;;;;;24.42;8.73;;;;;;;1.82;100.00;102331.28;5051833;28;20488;-73
2021/12/21 18:28:01;;;;;;;22.95;8.90;;;;;;;1.64;100.00;102330.00;5071386;28;20020;-75
2021/12/21 18:30:29;;;;;;;19.42;8.60;;;;;;;1.46;100.00;102315.69;5057849;28;20024;-76
2021/12/21 18:32:56;;;;;;;22.08;8.73;;;;;;;1.53;100.00;102319.84;5057724;28;20043;-73
2021/12/21 18:35:23;;;;;;;17.50;8.98;;;;;;;1.83;100.00;102359.03;5073194;28;20070;-75
2021/12/21 18:37:50;;;;;;;18.60;7.85;;;;;;;1.85;100.00;102352.03;5046850;28;20104;-74
2021/12/21 18:40:38;;;;;;;22.17;8.25;;;;;;;1.81;100.00;102342.59;5059491;28;20048;-75
2021/12/21 18:43:07;;;;;;;19.27;8.82;;;;;;;1.79;100.00;102342.63;5068110;28;20032;-75
2021/12/21 18:45:34;;;;;;;20.40;9.02;;;;;;;1.63;100.00;102323.91;5089180;28;20032;-76
2021/12/21 18:48:04;;;;;;;22.77;9.98;;;;;;;1.68;100.00;102339.44;5028887;28;20092;-73
2021/12/21 18:50:31;;;;;;;16.45;7.57;;;;;;;1.60;100.00;102312.75;5050792;28;20025;-74
2021/12/21 18:53:03;;;;;;;19.23;8.25;;;;;;;1.77;100.00;102338.34;5068528;28;20029;-72
2021/12/21 18:55:32;;;;;;;22.67;8.73;;;;;;;1.82;100.00;102341.72;5044544;23;20057;-75
2021/12/21 18:58:01;;;;;;;19.95;8.55;;;;;;;1.79;100.00;102345.22;4985326;28;20527;-72
2021/12/21 19:00:33;;;;;;;18.80;8.05;;;;;;;1.72;100.00;102320.22;4984095;28;20034;-72
2021/12/21 19:03:07;;;;;;;22.63;9.52;;;;;;;1.67;100.00;102335.97;4979895;28;20037;-71
2021/12/21 19:05:43;;;;;;;26.17;10.37;;;;;;;1.81;100.00;102337.38;4964460;28;20030;-72
2021/12/21 19:08:12;;;;;;;18.25;7.78;;;;;;;1.65;100.00;102344.72;4947120;28;20622;-74
2021/12/21 19:10:40;;;;;;;19.65;7.45;;;;;;;1.54;100.00;102324.16;4958470;28;20117;-72
2021/12/21 19:13:07;;;;;;;21.45;8.25;;;;;;;1.58;100.00;102324.94;4986498;23;20049;-72
2021/12/21 19:15:37;;;;;;;18.27;7.60;;;;;;;1.65;100.00;102345.56;5011439;28;20549;-72
2021/12/21 19:18:06;;;;;;;22.98;9.02;;;;;;;1.77;100.00;102328.81;5032215;23;20080;-74
2021/12/21 19:20:38;;;;;;;18.15;8.20;;;;;;;1.31;100.00;102318.66;5100528;23;20092;-76
2021/12/21 19:23:08;;;;;;;20.23;9.05;;;;;;;1.49;100.00;102326.03;5002662;28;20083;-73
2021/12/21 19:25:37;;;;;;;19.27;8.25;;;;;;;1.60;100.00;102342.22;4992696;28;20402;-74
2021/12/21 19:28:04;;;;;;;20.60;8.15;;;;;;;1.64;100.00;102350.84;5027764;28;20128;-73
2021/12/21 19:30:30;;;;;;;22.48;9.32;;;;;;;1.54;100.00;102350.19;4984690;28;20022;-72
2021/12/21 19:32:56;;;;;;;19.17;8.93;;;;;;;1.50;100.00;102350.28;5009433;28;20030;-74
2021/12/21 19:35:25;;;;;;;16.75;8.30;;;;;;;1.51;100.00;102346.81;5040257;23;20053;-72
2021/12/21 19:37:51;;;;;;;17.10;8.38;;;;;;;1.58;100.00;102343.16;5026550;28;20061;-74
2021/12/21 19:40:18;;;;;;;20.67;8.25;;;;;;;1.52;100.00;102343.31;5036272;22;20046;-72
2021/12/21 19:42:47;;;;;;;21.23;8.45;;;;;;;1.43;100.00;102341.78;5012214;28;20034;-73
2021/12/21 19:45:13;;;;;;;20.60;8.98;;;;;;;1.44;100.00;102326.13;4968677;28;20065;-72
2021/12/21 19:47:38;;;;;;;19.73;8.75;;;;;;;1.72;100.00;102361.91;4993873;28;20049;-71
2021/12/21 19:50:07;;;;;;;18.45;8.63;;;;;;;1.33;100.00;102337.69;4994559;28;20049;-72
2021/12/21 19:52:34;;;;;;;20.48;8.30;;;;;;;1.25;100.00;102354.34;5010261;28;20022;-72
2021/12/21 19:55:10;;;;;;;23.40;8.65;;;;;;;1.02;100.00;102352.28;4993612;28;20030;-72